Time;durP1;ratioP1;P1;durP2;ratioP2;P2;SDS_P1;SDS_P2;PMS_P1;PMS_P2;Temp;Humidity;BMP_temperature;BMP_pressure;BME280_temperature;BME280_humidity;BME280_pressure;Samples;Min_cycle;Max_cycle;Signal;HPM_P1;HPM_P2
2022/10/28 14:46:34;;;;;;;14.77;4.75;;;;;;;;;;6154235;23;20013;-89
2022/10/28 14:50:58;;;;;;;13.57;3.55;;;;;;;;;;6040725;23;20477;-88
2022/10/28 14:55:19;;;;;;;15.43;5.07;;;;;;;;;;5898190;24;20041;-89
2022/10/28 15:03:41;;;;;;;14.30;3.92;;;;;;;;;;5896930;24;20353;-89
2022/10/28 15:07:42;;;;;;;12.07;3.65;;;;;;;;;;5886582;24;20013;-88
2022/10/28 15:11:41;;;;;;;18.17;4.65;;;;;;;;;;5888346;24;20078;-88
2022/10/28 15:15:33;;;;;;;13.82;4.82;;;;;;;;;;5849178;24;20101;-89
2022/10/28 15:18:43;;;;;;;13.90;4.30;;;;;;;;;;5823074;24;20015;-88
2022/10/28 15:23:01;;;;;;;11.15;3.40;;;;;;;;;;5845488;24;20109;-88
2022/10/28 15:27:15;;;;;;;15.40;3.30;;;;;;;;;;5791226;24;20100;-88
2022/10/28 15:31:33;;;;;;;15.57;3.75;;;;;;;;;;5734295;24;20056;-89
2022/10/28 15:35:19;;;;;;;12.93;3.33;;;;;;;;;;5690755;25;20056;-89
2022/10/28 15:43:09;;;;;;;14.20;4.00;;;;;;;;;;5710911;25;20052;-89
2022/10/28 15:46:30;;;;;;;10.27;3.65;;;;;;;;;;5732248;24;20011;-89
2022/10/28 15:50:02;;;;;;;9.82;3.60;;;;;;;;;;5797904;24;20093;-88
2022/10/28 15:53:54;;;;;;;15.40;4.63;;;;;;;;;;5850678;24;20026;-88
2022/10/28 15:57:03;;;;;;;12.25;3.70;;;;;;;;;;5786950;24;20094;-88
2022/10/28 16:15:35;;;;;;;10.27;3.95;;;;;;;;;;6194845;23;20013;-89
2022/10/28 16:19:25;;;;;;;;;;;;;;;;;;5419835;23;16033192;-90
2022/10/28 16:22:41;;;;;;;18.05;4.78;;;;;;;;;;6063907;23;20004;-90
2022/10/28 16:26:04;;;;;;;11.35;4.45;;;;;;;;;;6044154;23;20014;-89
2022/10/28 16:51:38;;;;;;;13.82;5.20;;;;;;;;;;6038088;23;20015;-90
2022/10/28 17:03:52;;;;;;;10.10;5.20;;;;;;;;;;6141093;23;20081;-90
2022/10/28 17:11:54;;;;;;;14.73;5.70;;;;;;;;;;6141924;23;20347;-90
2022/10/28 17:15:08;;;;;;;12.77;5.03;;;;;;;;;;6183891;23;20317;-89
2022/10/28 17:18:58;;;;;;;14.82;5.55;;;;;;;;;;6085226;23;20537;-90
2022/10/28 17:27:18;;;;;;;13.18;5.28;;;;;;;;;;6067399;23;20093;-89
2022/10/28 17:30:47;;;;;;;14.80;5.18;;;;;;;;;;6055203;23;20023;-90
2022/10/28 17:34:32;;;;;;;12.95;5.70;;;;;;;;;;6045570;23;20019;-89
2022/10/28 17:38:50;;;;;;;13.20;5.13;;;;;;;;;;5978784;23;20041;-89
2022/10/28 17:41:57;;;;;;;10.70;5.43;;;;;;;;;;5979942;23;20055;-89
2022/10/28 17:50:46;;;;;;;14.13;6.00;;;;;;;;;;6008531;23;20024;-89
2022/10/28 17:54:22;;;;;;;20.20;6.68;;;;;;;;;;6067310;23;20042;-90
2022/10/28 17:59:00;;;;;;;15.80;5.38;;;;;;;;;;6066860;23;20102;-90
2022/10/28 18:03:29;;;;;;;15.45;5.70;;;;;;;;;;6010289;23;20349;-89
2022/10/28 18:19:34;;;;;;;19.58;7.20;;;;;;;;;;6183206;23;20255;-89
2022/10/28 18:24:03;;;;;;;14.20;5.68;;;;;;;;;;6037874;23;20095;-89
2022/10/28 18:28:22;;;;;;;16.55;5.50;;;;;;;;;;5930901;24;20035;-89
2022/10/28 18:40:45;;;;;;;;;;;;;;;;;;6037164;23;20045;-89
2022/10/28 18:44:11;;;;;;;23.10;6.00;;;;;;;;;;6047253;23;19918;-89
2022/10/28 18:47:38;;;;;;;21.13;5.55;;;;;;;;;;5927128;24;20148;-89
2022/10/28 18:51:05;;;;;;;13.82;5.07;;;;;;;;;;5948636;24;20088;-89
2022/10/28 18:55:15;;;;;;;12.85;4.47;;;;;;;;;;5920213;24;20031;-89
2022/10/28 19:02:43;;;;;;;17.33;4.93;;;;;;;;;;6062936;23;20469;-89
2022/10/28 19:11:37;;;;;;;16.00;5.30;;;;;;;;;;5926223;24;20040;-89
2022/10/28 19:16:00;;;;;;;20.15;5.13;;;;;;;;;;5876243;24;20452;-90
2022/10/28 19:19:22;;;;;;;17.60;5.40;;;;;;;;;;5871071;24;20045;-90
2022/10/28 19:40:54;;;;;;;23.55;6.30;;;;;;;;;;5982076;23;20024;-90
2022/10/28 19:44:13;;;;;;;22.58;7.18;;;;;;;;;;5938404;24;20029;-90
2022/10/28 19:51:55;;;;;;;15.85;5.35;;;;;;;;;;6036431;23;20721;-91
2022/10/28 19:55:58;;;;;;;13.55;4.90;;;;;;;;;;6038034;23;20019;-92
2022/10/28 19:59:53;;;;;;;23.67;5.75;;;;;;;;;;5988863;23;20031;-91
2022/10/28 20:08:21;;;;;;;15.00;6.10;;;;;;;;;;5948335;24;20858;-91
2022/10/28 20:20:44;;;;;;;18.38;6.10;;;;;;;;;;5852671;24;20028;-91
2022/10/28 20:28:33;;;;;;;15.35;6.00;;;;;;;;;;5869701;24;20014;-91
2022/10/28 20:32:03;;;;;;;17.00;7.15;;;;;;;;;;5863671;24;20022;-92
2022/10/28 20:35:41;;;;;;;16.15;6.50;;;;;;;;;;5856477;24;20072;-92
2022/10/28 20:39:58;;;;;;;16.35;6.38;;;;;;;;;;5874556;24;20022;-91
2022/10/28 20:43:34;;;;;;;14.40;6.18;;;;;;;;;;5879083;24;20030;-91
2022/10/28 20:47:59;;;;;;;17.52;6.65;;;;;;;;;;5948208;24;20081;-92
2022/10/28 20:55:37;;;;;;;16.95;7.00;;;;;;;;;;5901767;24;20346;-93
2022/10/28 20:59:04;;;;;;;18.27;6.10;;;;;;;;;;5902329;24;20013;-92
2022/10/28 21:03:02;;;;;;;21.10;7.50;;;;;;;;;;5902279;24;20108;-95
2022/10/28 21:11:58;;;;;;;19.58;7.93;;;;;;;;;;5719858;24;20158;-90
2022/10/28 21:20:20;;;;;;;16.33;6.15;;;;;;;;;;5690869;25;20025;-89
2022/10/28 21:24:02;;;;;;;15.20;6.60;;;;;;;;;;5734429;24;20028;-92
2022/10/28 21:27:47;;;;;;;16.65;5.95;;;;;;;;;;5754374;24;20028;-91
2022/10/28 21:32:10;;;;;;;17.13;5.90;;;;;;;;;;5763430;24;20087;-92
2022/10/28 21:35:48;;;;;;;19.90;6.88;;;;;;;;;;5791571;24;20027;-91
2022/10/28 21:40:15;;;;;;;17.10;6.65;;;;;;;;;;5841988;24;20042;-91
2022/10/28 21:44:09;;;;;;;17.63;6.53;;;;;;;;;;5840658;24;20034;-92
2022/10/28 21:48:18;;;;;;;19.25;7.07;;;;;;;;;;5872162;24;20022;-92
2022/10/28 21:51:50;;;;;;;21.80;6.55;;;;;;;;;;5922598;24;20037;-93
2022/10/28 21:55:25;;;;;;;23.50;7.15;;;;;;;;;;5773291;24;20026;-91
2022/10/28 21:59:26;;;;;;;19.02;7.85;;;;;;;;;;5803754;24;20054;-93
2022/10/28 22:03:34;;;;;;;18.30;6.85;;;;;;;;;;5786997;24;20027;-92
2022/10/28 22:07:40;;;;;;;15.65;6.72;;;;;;;;;;5715327;25;20090;-92
2022/10/28 22:11:51;;;;;;;24.38;7.15;;;;;;;;;;5796679;24;20082;-90
2022/10/28 22:15:40;;;;;;;15.68;6.40;;;;;;;;;;5781154;24;20119;-90
2022/10/28 22:19:27;;;;;;;20.58;8.25;;;;;;;;;;5819169;24;20410;-89
2022/10/28 22:23:45;;;;;;;16.67;6.43;;;;;;;;;;5678981;24;20049;-90
2022/10/28 22:32:05;;;;;;;12.98;6.47;;;;;;;;;;5684078;25;20033;-89
2022/10/28 22:35:26;;;;;;;16.50;6.03;;;;;;;;;;5714015;25;20077;-89
2022/10/28 22:43:07;;;;;;;19.48;5.45;;;;;;;;;;5668123;24;20032;-95
2022/10/28 22:50:53;;;;;;;16.92;5.60;;;;;;;;;;5675240;25;20022;-93
2022/10/28 22:54:11;;;;;;;15.35;5.65;;;;;;;;;;5668771;25;20480;-90
2022/10/28 23:02:30;;;;;;;17.50;6.38;;;;;;;;;;5819670;24;20027;-90
2022/10/28 23:06:03;;;;;;;16.17;5.45;;;;;;;;;;5813494;24;20113;-90
2022/10/28 23:09:39;;;;;;;;;;;;;;;;;;5813718;24;20485;-90
2022/10/28 23:22:44;;;;;;;20.35;6.43;;;;;;;;;;5870188;24;20061;-90
2022/10/28 23:26:25;;;;;;;16.42;5.80;;;;;;;;;;5842722;24;20034;-92
2022/10/28 23:29:59;;;;;;;13.98;5.80;;;;;;;;;;5798818;24;20109;-90
2022/10/28 23:34:14;;;;;;;21.02;6.05;;;;;;;;;;5847387;24;20026;-91
2022/10/28 23:38:01;;;;;;;19.05;5.13;;;;;;;;;;5870562;24;20026;-92
2022/10/28 23:41:58;;;;;;;15.18;4.72;;;;;;;;;;5859128;24;20032;-90
2022/10/28 23:45:28;;;;;;;;;;;;;;;;;;5854702;24;20026;-89
2022/10/28 23:49:24;;;;;;;12.02;4.68;;;;;;;;;;5887018;24;19919;-89
2022/10/28 23:53:11;;;;;;;15.82;4.97;;;;;;;;;;5833092;24;20022;-91
2022/10/28 23:56:15;;;;;;;15.70;4.70;;;;;;;;;;5715623;25;20153;-91
2022/10/28 23:59:29;;;;;;;12.80;4.55;;;;;;;;;;5650311;25;20026;-91
